sensor_id;sensor_type;location;lat;lon;timestamp;pressure;altitude;pressure_sealevel;temperature;humidity
35489;BME280;21602;55.670;37.578;2023-02-19T00:01:38;97609.75;;;-5.90;78.23
35489;BME280;21602;55.670;37.578;2023-02-19T00:04:07;97615.59;;;-5.88;78.04
35489;BME280;21602;55.670;37.578;2023-02-19T00:06:34;97600.41;;;-5.99;78.18
35489;BME280;21602;55.670;37.578;2023-02-19T00:09:00;97607.41;;;-6.00;78.41
35489;BME280;21602;55.670;37.578;2023-02-19T00:11:29;97598.47;;;-5.97;78.21
35489;BME280;21602;55.670;37.578;2023-02-19T00:13:57;97598.63;;;-5.99;78.17
35489;BME280;21602;55.670;37.578;2023-02-19T00:16:25;97601.72;;;-6.03;78.39
35489;BME280;21602;55.670;37.578;2023-02-19T00:18:53;97595.22;;;-5.99;78.53
35489;BME280;21602;55.670;37.578;2023-02-19T00:21:19;97589.03;;;-5.98;78.03
35489;BME280;21602;55.670;37.578;2023-02-19T00:23:50;97593.31;;;-6.05;78.44
35489;BME280;21602;55.670;37.578;2023-02-19T00:26:16;97578.19;;;-6.02;78.47
35489;BME280;21602;55.670;37.578;2023-02-19T00:28:42;97587.44;;;-5.99;78.58
35489;BME280;21602;55.670;37.578;2023-02-19T00:33:46;97584.31;;;-5.95;78.47
35489;BME280;21602;55.670;37.578;2023-02-19T00:36:12;97579.91;;;-5.94;78.38
35489;BME280;21602;55.670;37.578;2023-02-19T00:38:39;97579.91;;;-5.94;78.23
35489;BME280;21602;55.670;37.578;2023-02-19T00:41:06;97585.47;;;-5.97;78.51
35489;BME280;21602;55.670;37.578;2023-02-19T00:46:19;97579.81;;;-6.01;78.59
35489;BME280;21602;55.670;37.578;2023-02-19T00:48:45;97568.78;;;-6.03;78.42
35489;BME280;21602;55.670;37.578;2023-02-19T00:51:12;97561.97;;;-6.04;78.75
35489;BME280;21602;55.670;37.578;2023-02-19T00:53:39;97555.91;;;-5.96;78.77
35489;BME280;21602;55.670;37.578;2023-02-19T00:56:05;97557.06;;;-5.99;78.60
35489;BME280;21602;55.670;37.578;2023-02-19T00:58:31;97555.44;;;-6.00;78.70
35489;BME280;21602;55.670;37.578;2023-02-19T01:00:58;97546.09;;;-6.09;79.23
35489;BME280;21602;55.670;37.578;2023-02-19T01:03:23;97534.41;;;-6.13;78.92
35489;BME280;21602;55.670;37.578;2023-02-19T01:05:51;97535.13;;;-6.19;79.31
35489;BME280;21602;55.670;37.578;2023-02-19T01:08:17;97540.13;;;-6.18;79.49
35489;BME280;21602;55.670;37.578;2023-02-19T01:10:43;97535.06;;;-6.11;79.53
35489;BME280;21602;55.670;37.578;2023-02-19T01:13:09;97527.28;;;-6.11;79.34
35489;BME280;21602;55.670;37.578;2023-02-19T01:15:35;97528.09;;;-6.10;79.52
35489;BME280;21602;55.670;37.578;2023-02-19T01:18:02;97528.72;;;-6.08;79.66
35489;BME280;21602;55.670;37.578;2023-02-19T01:20:28;97531.44;;;-6.02;79.39
35489;BME280;21602;55.670;37.578;2023-02-19T01:22:55;97519.06;;;-6.00;79.59
35489;BME280;21602;55.670;37.578;2023-02-19T01:25:21;97525.53;;;-5.96;79.54
35489;BME280;21602;55.670;37.578;2023-02-19T01:27:48;97518.56;;;-5.95;79.37
35489;BME280;21602;55.670;37.578;2023-02-19T01:30:15;97513.88;;;-6.00;79.50
35489;BME280;21602;55.670;37.578;2023-02-19T01:32:42;97517.00;;;-6.04;79.74
35489;BME280;21602;55.670;37.578;2023-02-19T01:35:08;97516.00;;;-6.03;79.68
35489;BME280;21602;55.670;37.578;2023-02-19T01:37:34;97512.59;;;-6.04;79.59
35489;BME280;21602;55.670;37.578;2023-02-19T01:40:00;97509.47;;;-5.99;79.62
35489;BME280;21602;55.670;37.578;2023-02-19T01:42:26;97505.63;;;-6.03;79.57
35489;BME280;21602;55.670;37.578;2023-02-19T01:47:44;97509.03;;;-6.03;79.26
35489;BME280;21602;55.670;37.578;2023-02-19T01:50:10;97511.31;;;-6.08;79.45
35489;BME280;21602;55.670;37.578;2023-02-19T01:52:36;97509.72;;;-6.09;79.23
35489;BME280;21602;55.670;37.578;2023-02-19T01:55:04;97516.09;;;-6.11;79.37
35489;BME280;21602;55.670;37.578;2023-02-19T01:57:40;97511.69;;;-6.11;79.83
35489;BME280;21602;55.670;37.578;2023-02-19T02:00:10;97511.19;;;-6.06;79.61
35489;BME280;21602;55.670;37.578;2023-02-19T02:02:41;97509.63;;;-6.15;79.46
35489;BME280;21602;55.670;37.578;2023-02-19T02:05:14;97505.44;;;-6.25;79.45
35489;BME280;21602;55.670;37.578;2023-02-19T02:07:42;97511.84;;;-6.35;79.72
35489;BME280;21602;55.670;37.578;2023-02-19T02:10:27;97503.91;;;-6.42;79.82
35489;BME280;21602;55.670;37.578;2023-02-19T02:12:57;97508.31;;;-6.42;80.26
35489;BME280;21602;55.670;37.578;2023-02-19T02:15:40;97497.75;;;-6.41;80.30
35489;BME280;21602;55.670;37.578;2023-02-19T02:27:14;97498.09;;;-6.44;80.18
35489;BME280;21602;55.670;37.578;2023-02-19T02:32:23;97499.81;;;-6.59;80.69
35489;BME280;21602;55.670;37.578;2023-02-19T02:35:02;97484.88;;;-6.57;80.48
35489;BME280;21602;55.670;37.578;2023-02-19T02:37:32;97494.91;;;-6.54;80.66
35489;BME280;21602;55.670;37.578;2023-02-19T02:40:02;97498.31;;;-6.54;80.24
35489;BME280;21602;55.670;37.578;2023-02-19T02:42:29;97492.03;;;-6.59;80.38
35489;BME280;21602;55.670;37.578;2023-02-19T02:45:27;97479.84;;;-6.59;80.67
35489;BME280;21602;55.670;37.578;2023-02-19T02:56:43;97482.84;;;-6.47;80.62
35489;BME280;21602;55.670;37.578;2023-02-19T02:59:13;97483.50;;;-6.45;80.53
35489;BME280;21602;55.670;37.578;2023-02-19T03:02:01;97480.13;;;-6.46;80.29
35489;BME280;21602;55.670;37.578;2023-02-19T03:07:52;97478.38;;;-6.53;80.83
35489;BME280;21602;55.670;37.578;2023-02-19T03:10:24;97473.78;;;-6.51;80.67
35489;BME280;21602;55.670;37.578;2023-02-19T03:12:53;97479.13;;;-6.45;80.55
35489;BME280;21602;55.670;37.578;2023-02-19T03:15:44;97468.84;;;-6.38;80.57
35489;BME280;21602;55.670;37.578;2023-02-19T03:18:32;97478.44;;;-6.38;80.53
35489;BME280;21602;55.670;37.578;2023-02-19T03:21:20;97473.72;;;-6.35;80.81
35489;BME280;21602;55.670;37.578;2023-02-19T03:23:48;97461.72;;;-6.36;80.86
35489;BME280;21602;55.670;37.578;2023-02-19T03:26:35;97463.69;;;-6.46;81.20
35489;BME280;21602;55.670;37.578;2023-02-19T03:29:05;97461.75;;;-6.44;81.55
35489;BME280;21602;55.670;37.578;2023-02-19T03:31:54;97463.19;;;-6.41;81.74
35489;BME280;21602;55.670;37.578;2023-02-19T03:35:05;97452.47;;;-6.38;81.79
35489;BME280;21602;55.670;37.578;2023-02-19T03:37:25;97458.66;;;-6.39;81.59
35489;BME280;21602;55.670;37.578;2023-02-19T03:39:57;97450.56;;;-6.45;81.64
35489;BME280;21602;55.670;37.578;2023-02-19T03:45:51;97452.47;;;-6.38;81.49
35489;BME280;21602;55.670;37.578;2023-02-19T03:48:22;97443.34;;;-6.34;81.33
35489;BME280;21602;55.670;37.578;2023-02-19T03:53:44;97447.03;;;-6.29;81.24
35489;BME280;21602;55.670;37.578;2023-02-19T03:56:17;97445.44;;;-6.30;81.22
35489;BME280;21602;55.670;37.578;2023-02-19T03:59:11;97435.81;;;-6.21;81.25
35489;BME280;21602;55.670;37.578;2023-02-19T04:01:53;97437.59;;;-6.22;80.92
35489;BME280;21602;55.670;37.578;2023-02-19T04:04:33;97434.25;;;-6.30;80.87
35489;BME280;21602;55.670;37.578;2023-02-19T04:07:00;97433.97;;;-6.35;81.17
35489;BME280;21602;55.670;37.578;2023-02-19T04:09:35;97437.97;;;-6.33;81.51
35489;BME280;21602;55.670;37.578;2023-02-19T04:12:07;97438.41;;;-6.21;81.35
35489;BME280;21602;55.670;37.578;2023-02-19T04:14:38;97437.88;;;-6.16;81.18
35489;BME280;21602;55.670;37.578;2023-02-19T04:17:09;97434.09;;;-6.14;81.03
35489;BME280;21602;55.670;37.578;2023-02-19T04:19:39;97428.91;;;-6.14;80.93
35489;BME280;21602;55.670;37.578;2023-02-19T04:22:09;97431.50;;;-6.14;80.78
35489;BME280;21602;55.670;37.578;2023-02-19T04:24:51;97433.31;;;-6.14;81.09
35489;BME280;21602;55.670;37.578;2023-02-19T04:27:22;97433.50;;;-6.16;81.30
35489;BME280;21602;55.670;37.578;2023-02-19T04:29:48;97428.56;;;-6.11;81.35
35489;BME280;21602;55.670;37.578;2023-02-19T04:32:14;97431.97;;;-6.10;81.39
35489;BME280;21602;55.670;37.578;2023-02-19T04:34:40;97431.31;;;-6.12;81.41
35489;BME280;21602;55.670;37.578;2023-02-19T04:37:05;97427.13;;;-6.13;81.33
35489;BME280;21602;55.670;37.578;2023-02-19T04:39:31;97423.78;;;-6.22;81.17
35489;BME280;21602;55.670;37.578;2023-02-19T04:41:57;97420.38;;;-6.23;81.40
35489;BME280;21602;55.670;37.578;2023-02-19T04:44:23;97426.38;;;-6.22;81.88
35489;BME280;21602;55.670;37.578;2023-02-19T04:46:48;97419.22;;;-6.20;81.71
35489;BME280;21602;55.670;37.578;2023-02-19T04:49:14;97430.75;;;-6.23;81.67
35489;BME280;21602;55.670;37.578;2023-02-19T04:51:40;97425.56;;;-6.23;81.98
35489;BME280;21602;55.670;37.578;2023-02-19T04:54:06;97421.03;;;-6.21;81.84
35489;BME280;21602;55.670;37.578;2023-02-19T04:56:32;97415.53;;;-6.26;81.62
35489;BME280;21602;55.670;37.578;2023-02-19T04:58:58;97410.88;;;-6.30;81.98
35489;BME280;21602;55.670;37.578;2023-02-19T05:01:24;97414.59;;;-6.33;82.32
35489;BME280;21602;55.670;37.578;2023-02-19T05:03:51;97415.88;;;-6.29;82.02
35489;BME280;21602;55.670;37.578;2023-02-19T05:06:16;97411.97;;;-6.25;82.28
35489;BME280;21602;55.670;37.578;2023-02-19T05:08:42;97404.44;;;-6.20;81.79
35489;BME280;21602;55.670;37.578;2023-02-19T05:11:10;97409.53;;;-6.26;81.76
35489;BME280;21602;55.670;37.578;2023-02-19T05:13:37;97405.72;;;-6.38;82.12
35489;BME280;21602;55.670;37.578;2023-02-19T05:16:09;97405.22;;;-6.34;82.40
35489;BME280;21602;55.670;37.578;2023-02-19T05:18:39;97403.53;;;-6.27;82.27
35489;BME280;21602;55.670;37.578;2023-02-19T05:21:05;97401.56;;;-6.25;82.36
35489;BME280;21602;55.670;37.578;2023-02-19T05:23:31;97403.31;;;-6.17;82.33
35489;BME280;21602;55.670;37.578;2023-02-19T05:25:57;97399.34;;;-6.13;82.36
35489;BME280;21602;55.670;37.578;2023-02-19T05:28:24;97404.66;;;-6.06;82.45
35489;BME280;21602;55.670;37.578;2023-02-19T05:30:56;97394.75;;;-6.03;82.27
35489;BME280;21602;55.670;37.578;2023-02-19T05:33:24;97393.91;;;-6.03;81.73
35489;BME280;21602;55.670;37.578;2023-02-19T05:35:53;97398.28;;;-6.04;81.99
35489;BME280;21602;55.670;37.578;2023-02-19T05:38:19;97388.09;;;-6.05;81.54
35489;BME280;21602;55.670;37.578;2023-02-19T05:40:45;97384.78;;;-5.99;81.52
35489;BME280;21602;55.670;37.578;2023-02-19T05:43:12;97396.44;;;-5.95;81.67
35489;BME280;21602;55.670;37.578;2023-02-19T05:45:38;97388.19;;;-5.99;81.56
35489;BME280;21602;55.670;37.578;2023-02-19T05:48:05;97384.78;;;-5.99;81.42
35489;BME280;21602;55.670;37.578;2023-02-19T05:50:33;97386.38;;;-5.98;81.24
35489;BME280;21602;55.670;37.578;2023-02-19T05:53:11;97385.25;;;-5.96;81.38
35489;BME280;21602;55.670;37.578;2023-02-19T05:55:38;97390.50;;;-5.89;81.66
35489;BME280;21602;55.670;37.578;2023-02-19T05:58:04;97393.28;;;-5.90;80.81
35489;BME280;21602;55.670;37.578;2023-02-19T06:00:31;97394.00;;;-5.82;80.79
35489;BME280;21602;55.670;37.578;2023-02-19T06:02:58;97387.03;;;-5.81;80.77
35489;BME280;21602;55.670;37.578;2023-02-19T06:05:24;97392.69;;;-5.78;80.60
35489;BME280;21602;55.670;37.578;2023-02-19T06:07:49;97391.22;;;-5.80;80.43
35489;BME280;21602;55.670;37.578;2023-02-19T06:10:16;97388.88;;;-5.90;80.23
35489;BME280;21602;55.670;37.578;2023-02-19T06:12:42;97381.84;;;-5.96;80.36
35489;BME280;21602;55.670;37.578;2023-02-19T06:15:08;97383.25;;;-5.94;80.50
35489;BME280;21602;55.670;37.578;2023-02-19T06:17:34;97389.88;;;-5.91;80.77
35489;BME280;21602;55.670;37.578;2023-02-19T06:20:00;97379.56;;;-5.84;80.81
35489;BME280;21602;55.670;37.578;2023-02-19T06:22:29;97385.59;;;-5.84;80.59
35489;BME280;21602;55.670;37.578;2023-02-19T06:24:55;97378.69;;;-5.77;80.94
35489;BME280;21602;55.670;37.578;2023-02-19T06:27:21;97378.16;;;-5.72;80.49
35489;BME280;21602;55.670;37.578;2023-02-19T06:29:46;97381.22;;;-5.69;80.26
35489;BME280;21602;55.670;37.578;2023-02-19T06:32:12;97379.34;;;-5.60;80.41
35489;BME280;21602;55.670;37.578;2023-02-19T06:34:38;97381.81;;;-5.52;79.75
35489;BME280;21602;55.670;37.578;2023-02-19T06:37:04;97380.84;;;-5.51;79.51
35489;BME280;21602;55.670;37.578;2023-02-19T06:39:30;97378.53;;;-5.46;79.80
35489;BME280;21602;55.670;37.578;2023-02-19T06:41:56;97378.34;;;-5.44;79.70
35489;BME280;21602;55.670;37.578;2023-02-19T06:44:23;97375.47;;;-5.49;79.51
35489;BME280;21602;55.670;37.578;2023-02-19T06:46:49;97367.94;;;-5.44;79.67
35489;BME280;21602;55.670;37.578;2023-02-19T06:49:16;97368.81;;;-5.37;79.85
35489;BME280;21602;55.670;37.578;2023-02-19T06:51:42;97360.94;;;-5.29;79.58
35489;BME280;21602;55.670;37.578;2023-02-19T06:54:08;97358.22;;;-5.21;79.49
35489;BME280;21602;55.670;37.578;2023-02-19T06:56:37;97358.47;;;-5.16;78.95
35489;BME280;21602;55.670;37.578;2023-02-19T06:59:06;97353.28;;;-5.16;78.53
35489;BME280;21602;55.670;37.578;2023-02-19T07:01:34;97350.94;;;-5.10;78.26
35489;BME280;21602;55.670;37.578;2023-02-19T07:04:00;97344.00;;;-5.03;78.38
35489;BME280;21602;55.670;37.578;2023-02-19T07:06:27;97351.00;;;-5.04;78.13
35489;BME280;21602;55.670;37.578;2023-02-19T07:08:54;97348.78;;;-5.07;78.09
35489;BME280;21602;55.670;37.578;2023-02-19T07:11:21;97347.97;;;-5.07;77.95
35489;BME280;21602;55.670;37.578;2023-02-19T07:13:48;97347.69;;;-4.98;78.40
35489;BME280;21602;55.670;37.578;2023-02-19T07:16:18;97341.53;;;-4.90;77.81
35489;BME280;21602;55.670;37.578;2023-02-19T07:18:44;97338.06;;;-4.97;77.36
35489;BME280;21602;55.670;37.578;2023-02-19T07:21:12;97334.16;;;-5.08;77.49
35489;BME280;21602;55.670;37.578;2023-02-19T07:23:39;97337.13;;;-5.11;77.31
35489;BME280;21602;55.670;37.578;2023-02-19T07:26:08;97335.94;;;-5.08;77.28
35489;BME280;21602;55.670;37.578;2023-02-19T07:28:35;97322.50;;;-5.12;77.60
35489;BME280;21602;55.670;37.578;2023-02-19T07:31:01;97331.94;;;-5.11;77.69
35489;BME280;21602;55.670;37.578;2023-02-19T07:33:28;97335.06;;;-5.16;77.85
35489;BME280;21602;55.670;37.578;2023-02-19T07:35:55;97331.84;;;-5.18;78.09
35489;BME280;21602;55.670;37.578;2023-02-19T07:38:25;97320.31;;;-5.30;78.23
35489;BME280;21602;55.670;37.578;2023-02-19T07:40:57;97322.56;;;-5.27;78.35
35489;BME280;21602;55.670;37.578;2023-02-19T07:43:24;97325.75;;;-5.25;78.37
35489;BME280;21602;55.670;37.578;2023-02-19T07:45:51;97320.38;;;-5.23;78.19
35489;BME280;21602;55.670;37.578;2023-02-19T07:48:17;97321.44;;;-5.18;78.40
35489;BME280;21602;55.670;37.578;2023-02-19T07:50:54;97311.84;;;-5.17;78.31
35489;BME280;21602;55.670;37.578;2023-02-19T07:53:21;97319.38;;;-5.07;78.65
35489;BME280;21602;55.670;37.578;2023-02-19T07:55:47;97324.44;;;-4.99;78.55
35489;BME280;21602;55.670;37.578;2023-02-19T07:58:13;97318.50;;;-4.93;78.36
35489;BME280;21602;55.670;37.578;2023-02-19T08:00:39;97308.09;;;-4.93;77.84
35489;BME280;21602;55.670;37.578;2023-02-19T08:03:08;97305.75;;;-4.88;78.20
35489;BME280;21602;55.670;37.578;2023-02-19T08:05:39;97309.41;;;-4.82;78.04
35489;BME280;21602;55.670;37.578;2023-02-19T08:08:10;97305.44;;;-4.78;78.05
35489;BME280;21602;55.670;37.578;2023-02-19T08:10:37;97304.69;;;-4.72;78.03
35489;BME280;21602;55.670;37.578;2023-02-19T08:13:22;97304.81;;;-4.59;77.88
35489;BME280;21602;55.670;37.578;2023-02-19T08:15:53;97308.44;;;-4.53;77.44
35489;BME280;21602;55.670;37.578;2023-02-19T08:18:24;97305.47;;;-4.50;77.45
35489;BME280;21602;55.670;37.578;2023-02-19T08:20:52;97307.28;;;-4.51;76.72
35489;BME280;21602;55.670;37.578;2023-02-19T08:23:19;97305.09;;;-4.47;77.09
35489;BME280;21602;55.670;37.578;2023-02-19T08:25:49;97295.66;;;-4.48;76.89
35489;BME280;21602;55.670;37.578;2023-02-19T08:28:16;97298.16;;;-4.40;77.09
35489;BME280;21602;55.670;37.578;2023-02-19T08:30:44;97297.16;;;-4.39;76.84
35489;BME280;21602;55.670;37.578;2023-02-19T08:33:16;97299.00;;;-4.33;76.51
35489;BME280;21602;55.670;37.578;2023-02-19T08:35:43;97297.00;;;-4.31;76.45
35489;BME280;21602;55.670;37.578;2023-02-19T08:38:10;97292.19;;;-4.34;76.81
35489;BME280;21602;55.670;37.578;2023-02-19T08:40:37;97293.44;;;-4.51;76.44
35489;BME280;21602;55.670;37.578;2023-02-19T08:43:06;97296.06;;;-4.73;76.60
35489;BME280;21602;55.670;37.578;2023-02-19T08:45:33;97288.25;;;-4.73;77.20
35489;BME280;21602;55.670;37.578;2023-02-19T08:47:59;97289.19;;;-4.59;77.21
35489;BME280;21602;55.670;37.578;2023-02-19T08:50:25;97294.31;;;-4.44;77.05
35489;BME280;21602;55.670;37.578;2023-02-19T08:52:51;97288.97;;;-4.36;76.86
35489;BME280;21602;55.670;37.578;2023-02-19T08:55:17;97286.59;;;-4.31;76.70
35489;BME280;21602;55.670;37.578;2023-02-19T08:57:43;97291.19;;;-4.33;76.41
35489;BME280;21602;55.670;37.578;2023-02-19T09:00:09;97289.13;;;-4.38;76.71
35489;BME280;21602;55.670;37.578;2023-02-19T09:02:35;97280.53;;;-4.38;76.72
35489;BME280;21602;55.670;37.578;2023-02-19T09:05:02;97274.50;;;-4.39;76.41
35489;BME280;21602;55.670;37.578;2023-02-19T09:07:28;97278.31;;;-4.41;76.45
35489;BME280;21602;55.670;37.578;2023-02-19T09:09:54;97276.91;;;-4.37;76.37
35489;BME280;21602;55.670;37.578;2023-02-19T09:12:20;97266.31;;;-4.35;76.63
35489;BME280;21602;55.670;37.578;2023-02-19T09:14:48;97271.09;;;-4.39;76.06
35489;BME280;21602;55.670;37.578;2023-02-19T09:17:14;97268.25;;;-4.44;76.40
35489;BME280;21602;55.670;37.578;2023-02-19T09:19:40;97263.63;;;-4.49;76.48
35489;BME280;21602;55.670;37.578;2023-02-19T09:22:05;97267.66;;;-4.46;76.42
35489;BME280;21602;55.670;37.578;2023-02-19T09:24:31;97257.06;;;-4.38;76.43
35489;BME280;21602;55.670;37.578;2023-02-19T09:27:02;97257.31;;;-4.33;76.45
35489;BME280;21602;55.670;37.578;2023-02-19T09:29:27;97257.31;;;-4.33;76.46
35489;BME280;21602;55.670;37.578;2023-02-19T09:31:58;97248.34;;;-4.24;76.42
35489;BME280;21602;55.670;37.578;2023-02-19T09:34:26;97253.22;;;-4.14;76.16
35489;BME280;21602;55.670;37.578;2023-02-19T09:36:52;97249.81;;;-4.15;75.83
35489;BME280;21602;55.670;37.578;2023-02-19T09:39:19;97252.41;;;-4.15;76.00
35489;BME280;21602;55.670;37.578;2023-02-19T09:46:51;97243.72;;;-3.94;75.22
35489;BME280;21602;55.670;37.578;2023-02-19T09:54:28;97239.47;;;-4.01;75.01
35489;BME280;21602;55.670;37.578;2023-02-19T09:57:00;97232.47;;;-3.94;74.96
35489;BME280;21602;55.670;37.578;2023-02-19T09:59:39;97227.09;;;-3.86;74.99
35489;BME280;21602;55.670;37.578;2023-02-19T10:02:20;97227.75;;;-3.84;75.24
35489;BME280;21602;55.670;37.578;2023-02-19T10:04:47;97227.75;;;-3.77;75.05
35489;BME280;21602;55.670;37.578;2023-02-19T10:07:32;97215.31;;;-3.82;74.86
35489;BME280;21602;55.670;37.578;2023-02-19T10:10:09;97216.25;;;-3.96;74.89
35489;BME280;21602;55.670;37.578;2023-02-19T10:12:51;97229.41;;;-4.04;75.15
35489;BME280;21602;55.670;37.578;2023-02-19T10:17:44;97229.56;;;-3.78;75.14
35489;BME280;21602;55.670;37.578;2023-02-19T10:20:15;97221.16;;;-3.67;74.77
35489;BME280;21602;55.670;37.578;2023-02-19T10:22:42;97222.00;;;-3.59;74.65
35489;BME280;21602;55.670;37.578;2023-02-19T10:25:15;97227.59;;;-3.63;74.25
35489;BME280;21602;55.670;37.578;2023-02-19T10:27:42;97228.63;;;-3.57;74.24
35489;BME280;21602;55.670;37.578;2023-02-19T10:30:32;97222.28;;;-3.41;74.09
35489;BME280;21602;55.670;37.578;2023-02-19T10:35:35;97221.69;;;-3.37;73.82
35489;BME280;21602;55.670;37.578;2023-02-19T10:38:03;97225.53;;;-3.26;73.56
35489;BME280;21602;55.670;37.578;2023-02-19T10:40:32;97224.09;;;-3.28;72.93
35489;BME280;21602;55.670;37.578;2023-02-19T10:43:02;97224.50;;;-3.31;73.18
35489;BME280;21602;55.670;37.578;2023-02-19T10:45:38;97224.88;;;-3.35;73.59
35489;BME280;21602;55.670;37.578;2023-02-19T10:48:06;97218.66;;;-3.33;73.61
35489;BME280;21602;55.670;37.578;2023-02-19T10:50:50;97210.44;;;-3.24;73.68
35489;BME280;21602;55.670;37.578;2023-02-19T10:53:37;97218.09;;;-3.16;73.66
35489;BME280;21602;55.670;37.578;2023-02-19T10:56:27;97216.09;;;-3.14;73.01
35489;BME280;21602;55.670;37.578;2023-02-19T10:58:54;97211.66;;;-3.26;72.66
35489;BME280;21602;55.670;37.578;2023-02-19T11:01:24;97208.25;;;-3.20;73.16
35489;BME280;21602;55.670;37.578;2023-02-19T11:04:15;97214.50;;;-3.01;73.26
35489;BME280;21602;55.670;37.578;2023-02-19T11:06:42;97203.28;;;-2.82;72.95
35489;BME280;21602;55.670;37.578;2023-02-19T11:09:26;97205.66;;;-2.47;72.14
35489;BME280;21602;55.670;37.578;2023-02-19T11:11:54;97203.22;;;-2.42;72.04
35489;BME280;21602;55.670;37.578;2023-02-19T11:14:23;97207.28;;;-2.46;71.59
35489;BME280;21602;55.670;37.578;2023-02-19T11:16:55;97199.84;;;-2.49;72.00
35489;BME280;21602;55.670;37.578;2023-02-19T11:19:35;97201.06;;;-2.59;71.40
35489;BME280;21602;55.670;37.578;2023-02-19T11:22:30;97196.03;;;-2.67;71.88
35489;BME280;21602;55.670;37.578;2023-02-19T11:25:21;97204.69;;;-2.73;72.19
35489;BME280;21602;55.670;37.578;2023-02-19T11:28:02;97199.44;;;-2.86;72.25
35489;BME280;21602;55.670;37.578;2023-02-19T11:33:26;97202.66;;;-3.04;72.22
35489;BME280;21602;55.670;37.578;2023-02-19T11:38:41;97192.59;;;-3.14;72.68
35489;BME280;21602;55.670;37.578;2023-02-19T11:47:14;97196.25;;;-3.08;72.01
35489;BME280;21602;55.670;37.578;2023-02-19T11:59:11;97190.44;;;-3.03;70.69
35489;BME280;21602;55.670;37.578;2023-02-19T12:01:50;97190.00;;;-3.07;71.14
35489;BME280;21602;55.670;37.578;2023-02-19T12:10:24;97189.00;;;-3.26;70.89
35489;BME280;21602;55.670;37.578;2023-02-19T12:21:05;97180.75;;;-3.36;71.31
35489;BME280;21602;55.670;37.578;2023-02-19T12:32:39;97184.28;;;-3.57;71.79
35489;BME280;21602;55.670;37.578;2023-02-19T12:35:17;97186.72;;;-3.49;71.93
35489;BME280;21602;55.670;37.578;2023-02-19T12:43:13;97188.72;;;-3.57;71.57
35489;BME280;21602;55.670;37.578;2023-02-19T12:51:14;97191.53;;;-3.59;71.77
35489;BME280;21602;55.670;37.578;2023-02-19T12:53:52;97196.09;;;-3.61;71.86
35489;BME280;21602;55.670;37.578;2023-02-19T12:56:27;97195.09;;;-3.67;72.20
35489;BME280;21602;55.670;37.578;2023-02-19T12:58:59;97190.91;;;-3.61;72.55
35489;BME280;21602;55.670;37.578;2023-02-19T13:01:31;97199.75;;;-3.55;72.56
35489;BME280;21602;55.670;37.578;2023-02-19T13:06:39;97196.75;;;-3.52;72.81
35489;BME280;21602;55.670;37.578;2023-02-19T13:09:24;97199.94;;;-3.64;73.11
35489;BME280;21602;55.670;37.578;2023-02-19T13:12:01;97194.50;;;-3.69;73.29
35489;BME280;21602;55.670;37.578;2023-02-19T13:14:47;97197.06;;;-3.82;73.63
35489;BME280;21602;55.670;37.578;2023-02-19T13:17:25;97204.22;;;-3.97;73.46
35489;BME280;21602;55.670;37.578;2023-02-19T13:19:57;97196.91;;;-4.15;74.15
35489;BME280;21602;55.670;37.578;2023-02-19T13:22:34;97198.47;;;-4.21;74.46
35489;BME280;21602;55.670;37.578;2023-02-19T13:25:38;97195.25;;;-4.23;74.72
35489;BME280;21602;55.670;37.578;2023-02-19T13:28:20;97198.47;;;-4.21;74.95
35489;BME280;21602;55.670;37.578;2023-02-19T13:36:36;97188.50;;;-4.10;75.51
35489;BME280;21602;55.670;37.578;2023-02-19T13:39:05;97193.34;;;-4.07;75.80
35489;BME280;21602;55.670;37.578;2023-02-19T13:41:40;97196.53;;;-4.05;75.66
35489;BME280;21602;55.670;37.578;2023-02-19T13:44:25;97194.09;;;-4.14;75.97
35489;BME280;21602;55.670;37.578;2023-02-19T13:46:52;97197.31;;;-4.12;76.01
35489;BME280;21602;55.670;37.578;2023-02-19T13:51:57;97193.88;;;-4.19;76.15
35489;BME280;21602;55.670;37.578;2023-02-19T13:54:30;97192.69;;;-4.16;76.42
35489;BME280;21602;55.670;37.578;2023-02-19T13:59:43;97190.66;;;-4.21;76.56
35489;BME280;21602;55.670;37.578;2023-02-19T14:02:13;97195.44;;;-4.24;76.86
35489;BME280;21602;55.670;37.578;2023-02-19T14:09:56;97176.97;;;-4.36;77.61
35489;BME280;21602;55.670;37.578;2023-02-19T14:12:32;97176.97;;;-4.36;77.32
35489;BME280;21602;55.670;37.578;2023-02-19T14:17:49;97171.09;;;-4.45;77.94
35489;BME280;21602;55.670;37.578;2023-02-19T14:28:18;97173.06;;;-4.47;78.33
35489;BME280;21602;55.670;37.578;2023-02-19T14:30:55;97171.47;;;-4.48;78.38
35489;BME280;21602;55.670;37.578;2023-02-19T14:33:27;97175.88;;;-4.48;78.06
35489;BME280;21602;55.670;37.578;2023-02-19T14:36:02;97177.03;;;-4.57;77.91
35489;BME280;21602;55.670;37.578;2023-02-19T14:38:46;97167.38;;;-4.64;78.46
35489;BME280;21602;55.670;37.578;2023-02-19T14:41:14;97171.13;;;-4.73;78.58
35489;BME280;21602;55.670;37.578;2023-02-19T14:43:42;97168.66;;;-4.81;79.00
35489;BME280;21602;55.670;37.578;2023-02-19T14:46:50;97167.41;;;-4.85;79.31
35489;BME280;21602;55.670;37.578;2023-02-19T14:49:30;97159.81;;;-4.86;79.26
35489;BME280;21602;55.670;37.578;2023-02-19T14:52:03;97163.97;;;-4.92;79.55
35489;BME280;21602;55.670;37.578;2023-02-19T14:54:48;97159.13;;;-4.95;80.03
35489;BME280;21602;55.670;37.578;2023-02-19T14:57:22;97150.31;;;-4.94;80.01
35489;BME280;21602;55.670;37.578;2023-02-19T14:59:56;97159.75;;;-4.93;79.79
35489;BME280;21602;55.670;37.578;2023-02-19T15:02:26;97159.91;;;-5.01;79.77
35489;BME280;21602;55.670;37.578;2023-02-19T15:04:53;97161.06;;;-5.04;79.61
35489;BME280;21602;55.670;37.578;2023-02-19T15:07:28;97156.44;;;-5.08;79.61
35489;BME280;21602;55.670;37.578;2023-02-19T15:09:58;97161.25;;;-5.05;79.95
35489;BME280;21602;55.670;37.578;2023-02-19T15:12:34;97159.47;;;-5.05;79.93
35489;BME280;21602;55.670;37.578;2023-02-19T15:15:04;97158.28;;;-5.02;79.66
35489;BME280;21602;55.670;37.578;2023-02-19T15:17:33;97149.94;;;-4.98;79.51
35489;BME280;21602;55.670;37.578;2023-02-19T15:20:08;97149.13;;;-4.98;79.61
35489;BME280;21602;55.670;37.578;2023-02-19T15:22:35;97150.53;;;-4.96;79.35
35489;BME280;21602;55.670;37.578;2023-02-19T15:25:05;97155.97;;;-4.91;79.53
35489;BME280;21602;55.670;37.578;2023-02-19T15:27:32;97152.38;;;-4.90;79.40